TimeCEST,TemperatureF,Dew PointF,Humidity,Sea Level PressureIn,VisibilityMPH,Wind Direction,Wind SpeedMPH,Gust SpeedMPH,PrecipitationIn,Events,Conditions,WindDirDegrees,DateUTC
12:15 AM,66.2,57.2,73,30.12,-9999.0,NW,5.8,-,N/A,,Clear,310,2012-10-03 22:15:00
12:45 AM,64.4,55.4,73,30.12,-9999.0,WNW,6.9,-,N/A,,Clear,300,2012-10-03 22:45:00
12:55 AM,64.4,55.4,73,30.12,-9999.0,WNW,6.9,-,N/A,,Clear,300,2012-10-03 22:55:00
1:15 AM,64.4,55.4,73,30.12,-9999.0,WNW,6.9,-,N/A,,Clear,290,2012-10-03 23:15:00
1:45 AM,62.6,55.4,77,30.12,-9999.0,West,6.9,-,N/A,,Clear,270,2012-10-03 23:45:00
1:55 AM,62.6,55.4,77,30.12,-9999.0,West,6.9,-,N/A,,Clear,270,2012-10-03 23:55:00
2:00 AM,63,56,70,30.14,9,West,6.9,,,,,270,2012-10-04 00:00:00
2:15 AM,62.6,55.4,77,30.12,-9999.0,WNW,6.9,-,N/A,,Clear,290,2012-10-04 00:15:00
2:45 AM,62.6,55.4,77,30.09,-9999.0,WNW,6.9,-,N/A,,Clear,300,2012-10-04 00:45:00
2:55 AM,62.6,55.4,77,30.09,-9999.0,WNW,6.9,-,N/A,,Clear,300,2012-10-04 00:55:00
3:15 AM,62.6,55.4,77,30.09,-9999.0,WNW,6.9,-,N/A,,Clear,300,2012-10-04 01:15:00
3:45 AM,60.8,53.6,77,30.09,-9999.0,NW,5.8,-,N/A,,Clear,310,2012-10-04 01:45:00
3:55 AM,60.8,53.6,77,30.09,-9999.0,NW,5.8,-,N/A,,Clear,310,2012-10-04 01:55:00
4:15 AM,60.8,51.8,72,30.09,-9999.0,WNW,5.8,-,N/A,,Clear,300,2012-10-04 02:15:00
4:45 AM,59.0,51.8,77,30.09,-9999.0,NNW,4.6,-,N/A,,Clear,330,2012-10-04 02:45:00
4:55 AM,59.0,51.8,77,30.09,-9999.0,NNW,4.6,-,N/A,,Clear,330,2012-10-04 02:55:00
5:00 AM,60,53,70,30.11,9,NNW,4.6,,,,,330,2012-10-04 03:00:00
5:15 AM,59.0,51.8,77,30.09,-9999.0,NNW,4.6,-,N/A,,Clear,330,2012-10-04 03:15:00
5:45 AM,59.0,51.8,77,30.06,-9999.0,NNW,4.6,-,N/A,,Clear,340,2012-10-04 03:45:00
5:55 AM,59.0,51.8,77,30.06,-9999.0,NNW,4.6,-,N/A,,Clear,340,2012-10-04 03:55:00
6:15 AM,59.0,51.8,77,30.06,-9999.0,NNW,4.6,-,N/A,,Clear,340,2012-10-04 04:15:00
6:45 AM,57.2,50.0,77,30.06,-9999.0,NW,3.5,-,N/A,,Clear,320,2012-10-04 04:45:00
6:55 AM,57.2,50.0,77,30.06,-9999.0,NW,3.5,-,N/A,,Clear,320,2012-10-04 04:55:00
7:15 AM,57.2,50.0,77,30.06,-9999.0,NW,3.5,-,N/A,,Clear,320,2012-10-04 05:15:00
7:45 AM,57.2,48.2,72,30.06,6.2,NW,4.6,-,N/A,,Partly Cloudy,310,2012-10-04 05:45:00
7:55 AM,57.2,48.2,72,30.09,6.2,NW,4.6,-,N/A,,Partly Cloudy,310,2012-10-04 05:55:00
8:00 AM,57,48,64,30.09,9,NW,4.6,,,,Scattered Clouds,310,2012-10-04 06:00:00
8:15 AM,59.0,50.0,72,30.09,5.0,WNW,4.6,-,N/A,,Partly Cloudy,300,2012-10-04 06:15:00
8:45 AM,59.0,50.0,72,30.09,6.2,NNW,5.8,-,N/A,,Partly Cloudy,330,2012-10-04 06:45:00
8:55 AM,59.0,50.0,72,30.09,6.2,NNW,5.8,-,N/A,,Partly Cloudy,330,2012-10-04 06:55:00
9:15 AM,62.6,57.2,82,30.09,-9999.0,WNW,4.6,-,N/A,,Clear,300,2012-10-04 07:15:00
9:45 AM,66.2,60.8,83,30.09,-9999.0,NNW,3.5,-,N/A,,Clear,340,2012-10-04 07:45:00
9:55 AM,66.2,60.8,83,30.09,-9999.0,NNW,3.5,-,N/A,,Clear,340,2012-10-04 07:55:00
10:15 AM,68.0,57.2,68,30.09,-9999.0,NW,1.2,-,N/A,,Clear,320,2012-10-04 08:15:00
10:45 AM,71.6,62.6,73,30.09,6.2,SSE,2.3,-,N/A,,Partly Cloudy,160,2012-10-04 08:45:00
10:55 AM,71.6,62.6,73,30.09,6.2,SSE,2.3,-,N/A,,Partly Cloudy,160,2012-10-04 08:55:00
11:00 AM,71,63,69,30.11,12,SSE,2.3,,,,Scattered Clouds,160,2012-10-04 09:00:00
11:15 AM,73.4,60.8,65,30.09,6.2,South,4.6,-,N/A,,Partly Cloudy,170,2012-10-04 09:15:00
11:45 AM,75.2,62.6,65,30.09,6.2,SSE,6.9,-,N/A,,Partly Cloudy,160,2012-10-04 09:45:00
11:55 AM,75.2,62.6,65,30.09,6.2,SSE,6.9,-,N/A,,Partly Cloudy,160,2012-10-04 09:55:00
12:15 PM,75.2,60.8,61,30.09,6.2,SSE,9.2,-,N/A,,Partly Cloudy,160,2012-10-04 10:15:00
12:45 PM,75.2,60.8,61,30.06,6.2,SE,11.5,-,N/A,,Partly Cloudy,140,2012-10-04 10:45:00
12:55 PM,75.2,60.8,61,30.06,6.2,SE,11.5,-,N/A,,Partly Cloudy,140,2012-10-04 10:55:00
1:15 PM,77.0,59.0,54,30.06,6.2,SE,12.7,-,N/A,,Partly Cloudy,140,2012-10-04 11:15:00
1:45 PM,75.2,59.0,57,30.06,6.2,SE,13.8,-,N/A,,Partly Cloudy,140,2012-10-04 11:45:00
1:55 PM,75.2,59.0,57,30.06,6.2,SE,13.8,-,N/A,,Partly Cloudy,140,2012-10-04 11:55:00
2:00 PM,76,60,47,30.08,12,SE,13.8,,,,Scattered Clouds,140,2012-10-04 12:00:00
2:15 PM,75.2,60.8,61,30.06,6.2,SE,12.7,-,N/A,,Partly Cloudy,140,2012-10-04 12:15:00
2:45 PM,75.2,62.6,65,30.04,6.2,SE,13.8,-,N/A,,Partly Cloudy,140,2012-10-04 12:45:00
2:55 PM,75.2,62.6,65,30.04,6.2,SE,13.8,-,N/A,,Partly Cloudy,140,2012-10-04 12:55:00
3:15 PM,75.2,57.2,53,30.04,6.2,SSE,12.7,-,N/A,,Partly Cloudy,150,2012-10-04 13:15:00
3:45 PM,75.2,55.4,50,30.04,6.2,SSE,12.7,-,N/A,,Partly Cloudy,150,2012-10-04 13:45:00
3:55 PM,75.2,55.4,50,30.04,6.2,SSE,12.7,-,N/A,,Partly Cloudy,150,2012-10-04 13:55:00
4:15 PM,75.2,60.8,61,30.04,6.2,SE,10.4,-,N/A,,Partly Cloudy,140,2012-10-04 14:15:00
4:45 PM,75.2,57.2,53,30.04,6.2,SE,12.7,-,N/A,,Partly Cloudy,130,2012-10-04 14:45:00
4:55 PM,75.2,57.2,53,30.04,6.2,SE,12.7,-,N/A,,Partly Cloudy,130,2012-10-04 14:55:00
5:00 PM,74,57,46,30.05,12,SE,12.7,,,,Scattered Clouds,130,2012-10-04 15:00:00
5:15 PM,73.4,59.0,61,30.01,6.2,SE,11.5,-,N/A,,Partly Cloudy,130,2012-10-04 15:15:00
5:45 PM,73.4,59.0,61,30.01,-9999.0,SE,11.5,-,N/A,,Clear,130,2012-10-04 15:45:00
5:55 PM,73.4,59.0,61,30.01,-9999.0,SE,11.5,-,N/A,,Clear,130,2012-10-04 15:55:00
6:15 PM,73.4,60.8,65,30.04,-9999.0,SE,11.5,-,N/A,,Clear,130,2012-10-04 16:15:00
6:45 PM,71.6,59.0,64,30.04,-9999.0,SE,9.2,-,N/A,,Clear,140,2012-10-04 16:45:00
6:55 PM,71.6,59.0,64,30.04,-9999.0,SE,9.2,-,N/A,,Clear,140,2012-10-04 16:55:00
7:15 PM,71.6,59.0,64,30.04,-9999.0,SE,9.2,-,N/A,,Clear,130,2012-10-04 17:15:00
7:45 PM,69.8,59.0,68,30.04,-9999.0,SE,6.9,-,N/A,,Clear,130,2012-10-04 17:45:00
7:55 PM,69.8,59.0,68,30.04,-9999.0,SE,6.9,-,N/A,,Clear,130,2012-10-04 17:55:00
8:00 PM,70,58,58,30.06,12,SE,6.9,,,,,130,2012-10-04 18:00:00
8:15 PM,69.8,60.8,73,30.04,-9999.0,SE,6.9,-,N/A,,Clear,130,2012-10-04 18:15:00
8:45 PM,69.8,62.6,78,30.06,-9999.0,SE,6.9,-,N/A,,Clear,130,2012-10-04 18:45:00
8:55 PM,69.8,62.6,78,30.06,-9999.0,SE,6.9,-,N/A,,Clear,130,2012-10-04 18:55:00
9:15 PM,69.8,64.4,83,30.06,6.2,SE,5.8,-,N/A,,Partly Cloudy,130,2012-10-04 19:15:00
9:45 PM,69.8,64.4,83,30.06,6.2,SE,5.8,-,N/A,,Partly Cloudy,140,2012-10-04 19:45:00
9:55 PM,69.8,64.4,83,30.06,6.2,SE,5.8,-,N/A,,Partly Cloudy,140,2012-10-04 19:55:00
10:15 PM,69.8,64.4,83,30.06,6.2,SE,5.8,-,N/A,,Scattered Clouds,130,2012-10-04 20:15:00
10:45 PM,68.0,64.4,88,30.06,6.2,East,5.8,-,N/A,,Partly Cloudy,100,2012-10-04 20:45:00
10:55 PM,68.0,64.4,88,30.06,6.2,East,5.8,-,N/A,,Partly Cloudy,100,2012-10-04 20:55:00
11:00 PM,69,64,79,30.08,7,East,5.8,,,,Scattered Clouds,100,2012-10-04 21:00:00
11:15 PM,68.0,62.6,83,30.06,6.2,East,2.3,-,N/A,,Partly Cloudy,90,2012-10-04 21:15:00
11:45 PM,66.2,60.8,83,30.06,6.2,NNE,1.2,-,N/A,,Partly Cloudy,20,2012-10-04 21:45:00
11:55 PM,66.2,60.8,83,30.06,6.2,NNE,1.2,-,N/A,,Partly Cloudy,20,2012-10-04 21:55:00